Time;durP1;ratioP1;P1;durP2;ratioP2;P2;SDS_P1;SDS_P2;PMS_P1;PMS_P2;Temp;Humidity;BMP_temperature;BMP_pressure;BME280_temperature;BME280_humidity;BME280_pressure;Samples;Min_cycle;Max_cycle;Signal;HPM_P1;HPM_P2
2023/10/10 05:24:57;;;;;;;106.85;59.03;;;;;;;-145.67;100.00;66521.78;6200071;22;20125;31
2023/10/10 05:27:29;;;;;;;104.30;62.03;;;;;;;-145.67;100.00;66521.78;4978465;28;20045;-90
2023/10/10 05:30:05;;;;;;;107.28;63.35;;;;;;;-145.67;100.00;66521.78;4997875;28;20060;-90
2023/10/10 05:32:32;;;;;;;116.00;66.10;;;;;;;-145.67;100.00;66521.78;4995899;28;20033;-89
2023/10/10 05:34:58;;;;;;;108.13;63.85;;;;;;;-145.67;100.00;66521.78;5012242;28;20030;-90
2023/10/10 05:37:25;;;;;;;114.45;66.20;;;;;;;-145.67;100.00;66521.78;5000015;28;20048;-90
2023/10/10 05:39:58;;;;;;;109.53;65.07;;;;;;;-145.67;100.00;66521.78;5016520;28;20096;-90
2023/10/10 05:42:26;;;;;;;99.43;58.30;;;;;;;-145.67;100.00;66521.78;5016725;28;20026;-89
2023/10/10 05:44:52;;;;;;;102.57;59.65;;;;;;;-145.67;100.00;66521.78;5016122;28;20030;-90
2023/10/10 05:47:20;;;;;;;102.25;59.53;;;;;;;-145.67;100.00;66521.78;5016346;28;20481;-89
2023/10/10 05:49:46;;;;;;;97.68;60.67;;;;;;;-145.67;100.00;66521.78;5016667;28;20029;-90
2023/10/10 05:52:12;;;;;;;96.20;59.47;;;;;;;-145.67;100.00;66521.78;5019494;28;20439;-89
2023/10/10 05:54:38;;;;;;;101.05;59.78;;;;;;;-145.67;100.00;66521.78;5018968;28;20036;-90
2023/10/10 05:57:05;;;;;;;99.03;57.83;;;;;;;-145.67;100.00;66521.78;5016387;28;20022;-90
2023/10/10 05:59:32;;;;;;;92.38;55.50;;;;;;;-145.67;100.00;66521.78;5017504;28;20022;-90
2023/10/10 06:01:58;;;;;;;90.55;53.28;;;;;;;-145.67;100.00;66521.78;5000065;28;20026;-90
2023/10/10 06:04:23;;;;;;;96.88;54.45;;;;;;;-145.67;100.00;66521.78;5018022;28;20022;-91
2023/10/10 06:06:52;;;;;;;91.63;53.38;;;;;;;-145.67;100.00;66521.78;5019820;28;20029;-90
2023/10/10 06:09:26;;;;;;;92.30;55.13;;;;;;;-145.67;100.00;66521.78;5005259;28;20014;-89
2023/10/10 06:11:51;;;;;;;96.50;55.22;;;;;;;-145.67;100.00;66521.78;4980900;28;20105;-89
2023/10/10 06:14:21;;;;;;;89.35;56.42;;;;;;;-145.67;100.00;66521.78;4982581;28;20495;-91
2023/10/10 06:16:46;;;;;;;88.05;56.03;;;;;;;-145.67;100.00;66521.78;5001461;28;20042;-89
2023/10/10 06:19:20;;;;;;;85.53;52.15;;;;;;;-145.67;100.00;66521.78;4992022;28;20027;-89
2023/10/10 06:21:46;;;;;;;89.07;53.35;;;;;;;-145.67;100.00;66521.78;5012285;28;20022;-89
2023/10/10 06:24:12;;;;;;;91.10;55.30;;;;;;;-145.67;100.00;66521.78;5010598;28;20030;-89
2023/10/10 06:26:45;;;;;;;88.15;53.50;;;;;;;-145.67;100.00;66521.78;5011788;28;20127;-90
2023/10/10 06:29:12;;;;;;;92.25;52.13;;;;;;;-145.67;100.00;66521.78;5029188;28;20029;-88
2023/10/10 06:31:42;;;;;;;81.13;50.50;;;;;;;-145.67;100.00;66521.78;5004114;28;20030;-89
2023/10/10 06:34:19;;;;;;;84.35;51.03;;;;;;;-145.67;100.00;66521.78;4999647;28;20442;-90
2023/10/10 06:36:47;;;;;;;83.13;47.67;;;;;;;-145.67;100.00;66521.78;5016029;28;20025;-89
2023/10/10 06:41:46;;;;;;;90.88;51.53;;;;;;;-145.67;100.00;66521.78;5015415;28;20053;-89
2023/10/10 06:44:17;;;;;;;76.78;48.88;;;;;;;-145.67;100.00;66521.78;4999375;28;20100;-90
2023/10/10 06:46:47;;;;;;;76.18;47.00;;;;;;;-145.67;100.00;66521.78;4998796;28;20260;-90
2023/10/10 06:49:13;;;;;;;77.05;49.15;;;;;;;-145.67;100.00;66521.78;4998585;28;20032;-89
2023/10/10 06:51:42;;;;;;;72.10;46.67;;;;;;;-145.67;100.00;66521.78;5014647;28;20089;-89
2023/10/10 06:54:27;;;;;;;73.13;46.75;;;;;;;-145.67;100.00;66521.78;4998378;28;20029;-90
2023/10/10 06:59:27;;;;;;;;;;;;;;;-145.67;100.00;66521.78;5000653;28;20503;-89
2023/10/10 07:01:57;;;;;;;72.93;44.67;;;;;;;-145.67;100.00;66521.78;5005454;28;19918;-90
2023/10/10 07:04:29;;;;;;;69.57;44.38;;;;;;;-145.67;100.00;66521.78;4970427;28;20034;-90
2023/10/10 07:07:00;;;;;;;67.95;42.13;;;;;;;-145.67;100.00;66521.78;4998936;28;20495;-90
2023/10/10 07:09:29;;;;;;;66.07;42.30;;;;;;;-145.67;100.00;66521.78;5006555;28;20022;-90
2023/10/10 07:11:56;;;;;;;62.58;40.75;;;;;;;-145.67;100.00;66521.78;4999519;28;20943;-91
2023/10/10 07:14:40;;;;;;;61.78;40.28;;;;;;;-145.67;100.00;66521.78;4985195;28;20029;-90
2023/10/10 07:17:11;;;;;;;61.15;40.80;;;;;;;-145.67;100.00;66521.78;5001037;28;20032;-90
2023/10/10 07:19:55;;;;;;;56.30;37.67;;;;;;;-145.67;100.00;66521.78;4983919;28;20392;-92
2023/10/10 07:22:22;;;;;;;56.72;36.05;;;;;;;-145.67;100.00;66521.78;5016425;28;20099;-91
2023/10/10 07:24:48;;;;;;;56.63;37.95;;;;;;;-145.67;100.00;66521.78;4998838;28;20120;-90
2023/10/10 07:27:18;;;;;;;54.42;34.47;;;;;;;-145.67;100.00;66521.78;4998477;28;20050;-91
2023/10/10 07:32:16;;;;;;;43.80;32.92;;;;;;;-145.67;100.00;66521.78;4999803;28;20108;-92
2023/10/10 07:35:27;;;;;;;40.00;29.92;;;;;;;-145.67;100.00;66521.78;4984792;28;20029;-90
2023/10/10 07:37:57;;;;;;;42.05;30.77;;;;;;;-145.67;100.00;66521.78;5015288;28;20029;-90
2023/10/10 07:40:30;;;;;;;46.97;30.83;;;;;;;-145.67;100.00;66521.78;4998351;28;20503;-90
2023/10/10 07:42:59;;;;;;;42.83;29.27;;;;;;;-145.67;100.00;66521.78;4982343;28;20440;-90
2023/10/10 07:45:33;;;;;;;41.05;29.17;;;;;;;-145.67;100.00;66521.78;4998167;28;20531;-90
2023/10/10 07:50:46;;;;;;;37.80;29.45;;;;;;;-145.67;100.00;66521.78;4997747;28;20030;-90
2023/10/10 07:53:13;;;;;;;42.53;28.63;;;;;;;-145.67;100.00;66521.78;5015069;28;20034;-92
2023/10/10 07:55:52;;;;;;;37.88;27.88;;;;;;;-145.67;100.00;66521.78;4981687;28;20432;-90
2023/10/10 07:58:23;;;;;;;38.05;27.27;;;;;;;-145.67;100.00;66521.78;4993818;28;20033;-89
2023/10/10 08:00:51;;;;;;;40.33;27.10;;;;;;;-145.67;100.00;66521.78;4995246;28;20026;-90
2023/10/10 08:03:20;;;;;;;37.97;25.05;;;;;;;-145.67;100.00;66521.78;4988098;28;20041;-91
2023/10/10 08:05:48;;;;;;;35.00;24.50;;;;;;;-145.67;100.00;66521.78;4981362;28;20022;-90
2023/10/10 08:08:17;;;;;;;34.25;25.58;;;;;;;-145.67;100.00;66521.78;4981082;28;20034;-90
2023/10/10 08:10:49;;;;;;;36.47;24.75;;;;;;;-145.67;100.00;66521.78;4997099;28;20044;-90
2023/10/10 08:13:20;;;;;;;35.78;24.40;;;;;;;-145.67;100.00;66521.78;4981464;28;20116;-91
2023/10/10 08:23:32;;;;;;;36.92;26.20;;;;;;;-145.67;100.00;66521.78;5014847;28;20036;-90
2023/10/10 08:25:57;;;;;;;39.72;26.52;;;;;;;-145.67;100.00;66521.78;4980852;28;20037;-91
2023/10/10 08:28:23;;;;;;;37.78;26.08;;;;;;;-145.67;100.00;66521.78;4997820;28;20389;-90
2023/10/10 08:30:50;;;;;;;43.17;26.90;;;;;;;-145.67;100.00;66521.78;4990629;28;20033;-90
2023/10/10 08:33:16;;;;;;;41.60;26.95;;;;;;;-145.67;100.00;66521.78;5015216;28;20080;-90
2023/10/10 08:35:42;;;;;;;38.47;27.00;;;;;;;-145.67;100.00;66521.78;5012791;28;20029;-90
2023/10/10 08:38:09;;;;;;;44.85;28.92;;;;;;;-145.67;100.00;66521.78;5018536;28;20018;-90
2023/10/10 08:40:36;;;;;;;44.42;31.50;;;;;;;-145.67;100.00;66521.78;5012097;28;20054;-91
2023/10/10 08:43:09;;;;;;;49.13;31.70;;;;;;;-145.67;100.00;66521.78;5004460;28;20032;-90
2023/10/10 08:45:39;;;;;;;47.10;33.45;;;;;;;-145.67;100.00;66521.78;5009709;28;20094;-90
2023/10/10 08:48:12;;;;;;;50.13;33.38;;;;;;;-145.67;100.00;66521.78;5001042;28;20033;-90
2023/10/10 08:50:40;;;;;;;49.83;34.15;;;;;;;-145.67;100.00;66521.78;4981282;28;20050;-90
2023/10/10 08:53:13;;;;;;;52.95;35.75;;;;;;;-145.67;100.00;66521.78;4980328;28;20029;-89
2023/10/10 08:55:40;;;;;;;56.92;37.05;;;;;;;-145.67;100.00;66521.78;5000214;28;20093;-90
2023/10/10 08:58:12;;;;;;;56.83;37.17;;;;;;;-145.67;100.00;66521.78;4999843;28;20472;-90
2023/10/10 09:00:37;;;;;;;58.20;36.92;;;;;;;-145.67;100.00;66521.78;5001166;28;20048;-90
2023/10/10 09:03:07;;;;;;;54.50;36.60;;;;;;;-145.67;100.00;66521.78;4996888;28;20549;-90
2023/10/10 09:05:33;;;;;;;59.90;38.83;;;;;;;-145.67;100.00;66521.78;4981275;28;20054;-88
2023/10/10 09:08:06;;;;;;;54.70;38.88;;;;;;;-145.67;100.00;66521.78;4980879;28;20495;-89
2023/10/10 09:10:41;;;;;;;55.10;38.55;;;;;;;-145.67;100.00;66521.78;4965040;28;20045;-90
2023/10/10 09:13:18;;;;;;;62.97;40.00;;;;;;;-145.67;100.00;66521.78;5014709;28;20045;-91
2023/10/10 09:15:54;;;;;;;56.92;38.78;;;;;;;-145.67;100.00;66521.78;4996673;28;20048;-89
2023/10/10 09:18:25;;;;;;;61.70;40.28;;;;;;;-145.67;100.00;66521.78;4980372;28;20059;-90
2023/10/10 09:20:53;;;;;;;58.55;40.40;;;;;;;-145.67;100.00;66521.78;4998241;28;20113;-89
2023/10/10 09:23:23;;;;;;;57.67;39.83;;;;;;;-145.67;100.00;66521.78;4996476;28;20026;-90
2023/10/10 09:26:29;;;;;;;60.53;39.97;;;;;;;-145.67;100.00;66521.78;4996264;28;20041;-89
2023/10/10 09:28:49;;;;;;;61.72;39.47;;;;;;;-145.67;100.00;66521.78;4997798;28;20030;-89
2023/10/10 09:31:20;;;;;;;58.78;38.72;;;;;;;-145.67;100.00;66521.78;4995660;28;20515;-90
2023/10/10 09:33:47;;;;;;;;;;;;;;;-145.67;100.00;66521.78;4981273;28;20105;-89
2023/10/10 09:36:19;;;;;;;69.20;40.13;;;;;;;-145.67;100.00;66521.78;5014868;28;19932;-88
2023/10/10 09:38:46;;;;;;;57.55;38.25;;;;;;;-145.67;100.00;66521.78;4981203;28;20030;-90
2023/10/10 09:44:27;;;;;;;63.72;39.10;;;;;;;-145.67;100.00;66521.78;4999573;28;20128;-89
2023/10/10 09:49:47;;;;;;;69.57;39.65;;;;;;;-145.67;100.00;66521.78;5015545;28;20064;-89
2023/10/10 09:55:47;;;;;;;66.22;38.90;;;;;;;-145.67;100.00;66521.78;4999633;28;20465;-89
2023/10/10 10:00:44;;;;;;;61.60;39.25;;;;;;;-145.67;100.00;66521.78;5015818;28;20456;-89
2023/10/10 10:06:50;;;;;;;62.50;38.58;;;;;;;-145.67;100.00;66521.78;4982958;28;20099;-90
2023/10/10 10:09:32;;;;;;;66.68;39.63;;;;;;;-145.67;100.00;66521.78;5015557;28;20022;-88
2023/10/10 10:12:10;;;;;;;66.05;39.65;;;;;;;-145.67;100.00;66521.78;5014100;28;20110;-89
2023/10/10 10:14:55;;;;;;;66.30;41.20;;;;;;;-145.67;100.00;66521.78;5015523;28;20037;-89
2023/10/10 10:17:48;;;;;;;67.07;38.38;;;;;;;-145.67;100.00;66521.78;5002199;28;20082;-90
2023/10/10 10:20:33;;;;;;;61.03;38.33;;;;;;;-145.67;100.00;66521.78;4986678;28;20092;-90
2023/10/10 10:23:01;;;;;;;59.65;36.78;;;;;;;-145.67;100.00;66521.78;5006488;28;20037;-89
2023/10/10 20:36:46;;;;;;;53.97;19.83;;;;;;;-145.67;100.00;66521.78;5747800;22;20147;-93
2023/10/10 20:39:18;;;;;;;64.28;19.58;;;;;;;-145.67;100.00;66521.78;5036916;28;20037;-90
2023/10/10 20:41:49;;;;;;;51.90;20.30;;;;;;;-145.67;100.00;66521.78;5042745;28;20451;-92
2023/10/10 20:44:15;;;;;;;50.42;18.67;;;;;;;-145.67;100.00;66521.78;5037192;28;20123;-92
2023/10/10 20:46:50;;;;;;;50.08;18.52;;;;;;;-145.67;100.00;66521.78;5039535;28;20024;-94
2023/10/10 20:49:27;;;;;;;46.03;19.90;;;;;;;-145.67;100.00;66521.78;5061131;28;20028;-94
2023/10/10 20:51:54;;;;;;;59.95;20.20;;;;;;;-145.67;100.00;66521.78;5060079;28;20032;-91
2023/10/10 20:54:20;;;;;;;65.85;19.83;;;;;;;-145.67;100.00;66521.78;5058187;28;20038;-92
2023/10/10 20:56:48;;;;;;;57.95;20.20;;;;;;;-145.67;100.00;66521.78;5079284;28;20111;-92
2023/10/10 20:59:14;;;;;;;51.53;19.77;;;;;;;-145.67;100.00;66521.78;5062992;28;20024;-92
2023/10/10 21:01:40;;;;;;;60.92;21.58;;;;;;;-145.67;100.00;66521.78;5077218;28;20374;-92
2023/10/10 21:04:06;;;;;;;55.50;20.60;;;;;;;-145.67;100.00;66521.78;5065712;28;20039;-93
2023/10/10 21:06:32;;;;;;;55.33;20.90;;;;;;;-145.67;100.00;66521.78;5072270;28;20028;-93
2023/10/10 21:08:58;;;;;;;58.00;20.73;;;;;;;-145.67;100.00;66521.78;5074545;28;20034;-92
2023/10/10 21:11:24;;;;;;;56.58;20.50;;;;;;;-145.67;100.00;66521.78;5075016;28;20035;-91
2023/10/10 21:13:50;;;;;;;67.07;22.25;;;;;;;-145.67;100.00;66521.78;5029682;28;20056;-91
2023/10/10 21:16:15;;;;;;;54.88;21.98;;;;;;;-145.67;100.00;66521.78;5045938;28;20021;-91
2023/10/10 21:18:41;;;;;;;58.90;20.75;;;;;;;-145.67;100.00;66521.78;5042854;28;20082;-90
2023/10/10 21:21:08;;;;;;;57.50;21.17;;;;;;;-145.67;100.00;66521.78;5051050;28;20036;-91
2023/10/10 21:23:34;;;;;;;58.15;21.58;;;;;;;-145.67;100.00;66521.78;5051206;28;20021;-91
2023/10/10 21:26:00;;;;;;;51.60;21.65;;;;;;;-145.67;100.00;66521.78;5069326;28;20092;-91
2023/10/10 21:28:26;;;;;;;55.03;21.65;;;;;;;-145.67;100.00;66521.78;5069168;28;20035;-92
2023/10/10 21:30:51;;;;;;;63.22;21.42;;;;;;;-145.67;100.00;66521.78;5061312;28;20017;-92
2023/10/10 21:33:20;;;;;;;65.07;21.98;;;;;;;-145.67;100.00;66521.78;5062176;28;20021;-90
2023/10/10 21:35:49;;;;;;;65.78;22.98;;;;;;;-145.67;100.00;66521.78;5061036;28;20032;-93
2023/10/10 21:38:15;;;;;;;66.47;21.83;;;;;;;-145.67;100.00;66521.78;5082441;28;20024;-92
2023/10/10 21:40:40;;;;;;;57.58;21.42;;;;;;;-145.67;100.00;66521.78;5059479;28;20051;-92
2023/10/10 21:43:06;;;;;;;59.92;21.63;;;;;;;-145.67;100.00;66521.78;5076341;28;20135;-92
2023/10/10 21:45:32;;;;;;;62.25;22.80;;;;;;;-145.67;100.00;66521.78;5050337;28;20029;-92
2023/10/10 21:47:58;;;;;;;58.83;21.73;;;;;;;-145.67;100.00;66521.78;5067872;28;20040;-92
2023/10/10 21:50:23;;;;;;;61.00;21.38;;;;;;;-145.67;100.00;66521.78;5051623;28;20039;-92
2023/10/10 21:52:50;;;;;;;55.13;21.30;;;;;;;-145.67;100.00;66521.78;5058395;28;20437;-92
2023/10/10 21:55:21;;;;;;;65.90;21.45;;;;;;;-145.67;100.00;66521.78;5063568;28;20028;-92
2023/10/10 21:57:51;;;;;;;67.75;21.27;;;;;;;-145.67;100.00;66521.78;5049060;28;20458;-92
2023/10/10 22:00:20;;;;;;;59.70;20.65;;;;;;;-145.67;100.00;66521.78;5046277;28;20021;-91
2023/10/10 22:02:47;;;;;;;57.47;20.80;;;;;;;-145.67;100.00;66521.78;5027689;28;20047;-91
2023/10/10 22:05:15;;;;;;;56.47;19.73;;;;;;;-145.67;100.00;66521.78;5020723;28;20386;-94
2023/10/10 22:07:45;;;;;;;65.18;21.02;;;;;;;-145.67;100.00;66521.78;5054900;28;20039;-92
2023/10/10 22:10:19;;;;;;;58.10;20.00;;;;;;;-145.67;100.00;66521.78;5056644;28;20032;-93
2023/10/10 22:12:55;;;;;;;61.03;21.20;;;;;;;-145.67;100.00;66521.78;5061125;28;20032;-92
2023/10/10 22:15:25;;;;;;;68.60;22.08;;;;;;;-145.67;100.00;66521.78;5069333;28;20043;-91
2023/10/10 22:17:55;;;;;;;65.13;21.33;;;;;;;-145.67;100.00;66521.78;5064333;28;20042;-89
2023/10/10 22:24:03;;;;;;;62.05;20.17;;;;;;;-145.67;100.00;66521.78;5260390;22;20063;-93
2023/10/10 22:26:29;;;;;;;61.53;21.33;;;;;;;-145.67;100.00;66521.78;5080316;28;20088;-93
2023/10/10 22:28:55;;;;;;;58.00;20.30;;;;;;;-145.67;100.00;66521.78;5079154;28;20027;-93
2023/10/10 22:31:20;;;;;;;56.55;18.77;;;;;;;-145.67;100.00;66521.78;5063476;28;20030;-92
2023/10/10 22:33:46;;;;;;;55.00;19.45;;;;;;;-145.67;100.00;66521.78;5077721;28;20434;-92
2023/10/10 22:36:16;;;;;;;58.33;20.40;;;;;;;-145.67;100.00;66521.78;5075445;28;20027;-91
2023/10/10 22:38:44;;;;;;;62.17;19.20;;;;;;;-145.67;100.00;66521.78;5064933;28;20035;-91
2023/10/10 22:41:14;;;;;;;63.88;19.35;;;;;;;-145.67;100.00;66521.78;5092709;28;20159;-91
2023/10/10 22:43:40;;;;;;;58.53;18.55;;;;;;;-145.67;100.00;66521.78;5070195;28;20020;-91
2023/10/10 22:46:09;;;;;;;57.15;18.38;;;;;;;-145.67;100.00;66521.78;5079174;28;20082;-91
2023/10/10 22:48:38;;;;;;;56.72;17.73;;;;;;;-145.67;100.00;66521.78;5079386;28;20024;-92
2023/10/10 22:51:05;;;;;;;46.85;17.38;;;;;;;-145.67;100.00;66521.78;5082770;28;20036;-93
2023/10/10 22:53:35;;;;;;;50.47;17.48;;;;;;;-145.67;100.00;66521.78;5065592;28;20020;-92
2023/10/10 22:56:08;;;;;;;60.42;18.95;;;;;;;-145.67;100.00;66521.78;5080528;28;20024;-93
2023/10/10 22:58:34;;;;;;;60.35;17.98;;;;;;;-145.67;100.00;66521.78;5082457;28;20087;-93
2023/10/10 23:01:00;;;;;;;56.45;17.38;;;;;;;-145.67;100.00;66521.78;5063516;28;20028;-92
2023/10/10 23:03:28;;;;;;;62.28;18.45;;;;;;;-145.67;100.00;66521.78;5064221;28;20038;-93
2023/10/10 23:05:54;;;;;;;56.78;17.63;;;;;;;-145.67;100.00;66521.78;5069474;28;20035;-92
